Time;durP1;ratioP1;P1;durP2;ratioP2;P2;SDS_P1;SDS_P2;PMS_P1;PMS_P2;Temp;Humidity;BMP_temperature;BMP_pressure;BME280_temperature;BME280_humidity;BME280_pressure;Samples;Min_cycle;Max_cycle;Signal;HPM_P1;HPM_P2
2023/01/30 00:01:11;;;;;;;;;;;0.30;1.00;;;;;;5009722;28;19918;-82
2023/01/30 00:03:37;;;;;;;;;;;0.40;1.00;;;;;;5009490;28;19914;-82
2023/01/30 00:06:03;;;;;;;;;;;0.40;1.00;;;;;;5012860;28;19917;-83
2023/01/30 00:08:29;;;;;;;;;;;0.40;1.00;;;;;;5010501;28;19917;-82
2023/01/30 00:10:55;;;;;;;;;;;0.50;1.00;;;;;;5009584;28;19909;-82
2023/01/30 00:13:21;;;;;;;;;;;0.40;1.00;;;;;;5011969;28;20176;-81
2023/01/30 00:15:47;;;;;;;;;;;0.40;1.00;;;;;;5007624;28;19917;-81
2023/01/30 00:18:13;;;;;;;;;;;0.40;1.00;;;;;;5009247;28;19916;-81
2023/01/30 00:20:39;;;;;;;;;;;0.40;1.00;;;;;;5007208;28;20359;-81
2023/01/30 00:23:05;;;;;;;;;;;0.40;1.00;;;;;;5012205;28;20442;-81
2023/01/30 00:25:31;;;;;;;;;;;0.40;1.00;;;;;;5009068;28;19996;-82
2023/01/30 00:27:58;;;;;;;;;;;0.40;1.00;;;;;;5010806;28;19914;-85
2023/01/30 00:30:24;;;;;;;;;;;0.50;1.00;;;;;;5000603;28;19932;-82
2023/01/30 00:32:54;;;;;;;;;;;0.50;1.00;;;;;;5006782;28;19940;-82
2023/01/30 00:35:20;;;;;;;;;;;0.50;1.00;;;;;;5013226;28;20270;-82
2023/01/30 00:37:46;;;;;;;;;;;0.50;1.00;;;;;;5009293;28;19909;-81
2023/01/30 00:40:14;;;;;;;;;;;0.50;1.00;;;;;;5006522;28;19921;-81
2023/01/30 00:48:10;;;;;;;;;;;0.50;1.00;;;;;;5024889;28;19923;-83
2023/01/30 00:50:43;;;;;;;;;;;0.60;1.00;;;;;;5030907;28;19906;-81
2023/01/30 00:53:12;;;;;;;;;;;0.50;1.00;;;;;;5008376;28;19917;-82
2023/01/30 00:55:38;;;;;;;;;;;0.50;1.00;;;;;;5012337;28;19916;-82
2023/01/30 00:58:04;;;;;;;;;;;0.50;1.00;;;;;;5009683;28;20316;-83
2023/01/30 01:00:31;;;;;;;;;;;0.50;1.00;;;;;;5010497;28;19921;-82
2023/01/30 01:02:57;;;;;;;;;;;0.40;1.00;;;;;;5010113;28;19922;-82
2023/01/30 01:05:24;;;;;;;;;;;0.40;1.00;;;;;;5009945;28;19936;-84
2023/01/30 01:07:52;;;;;;;;;;;0.40;1.00;;;;;;5009532;28;19909;-84
2023/01/30 01:10:18;;;;;;;;;;;0.40;1.00;;;;;;5005882;28;19909;-84
2023/01/30 01:12:44;;;;;;;;;;;0.30;1.00;;;;;;4991597;28;19909;-84
2023/01/30 01:15:11;;;;;;;;;;;0.30;1.00;;;;;;5012247;28;19909;-84
2023/01/30 01:17:37;;;;;;;;;;;0.30;1.00;;;;;;5010379;28;20266;-83
2023/01/30 01:20:04;;;;;;;;;;;0.30;1.00;;;;;;4991676;28;20370;-85
2023/01/30 01:22:32;;;;;;;;;;;0.30;1.00;;;;;;5008241;28;19910;-83
2023/01/30 01:24:58;;;;;;;;;;;0.30;1.00;;;;;;5005556;28;19914;-83
2023/01/30 01:27:24;;;;;;;;;;;0.30;1.00;;;;;;5017556;28;19936;-84
2023/01/30 01:29:50;;;;;;;;;;;0.30;1.00;;;;;;5010407;28;19905;-84
2023/01/30 01:32:16;;;;;;;;;;;0.30;1.00;;;;;;5020889;28;19917;-84
2023/01/30 01:34:42;;;;;;;;;;;0.30;1.00;;;;;;5014951;28;19936;-82
2023/01/30 01:37:08;;;;;;;;;;;0.40;1.00;;;;;;5011485;28;19979;-83
2023/01/30 01:42:21;;;;;;;;;;;0.40;1.00;;;;;;4995390;28;19920;-84
2023/01/30 01:45:02;;;;;;;;;;;0.40;1.00;;;;;;5010950;28;19913;-83
2023/01/30 01:47:28;;;;;;;;;;;0.40;1.00;;;;;;5013268;28;19920;-84
2023/01/30 01:49:55;;;;;;;;;;;0.50;1.00;;;;;;5013709;28;19920;-84
2023/01/30 01:52:22;;;;;;;;;;;0.50;1.00;;;;;;5014938;28;19924;-83
2023/01/30 01:54:48;;;;;;;;;;;0.50;1.00;;;;;;5014138;28;19909;-84
2023/01/30 01:57:34;;;;;;;;;;;0.60;1.00;;;;;;4994533;28;19971;-84
2023/01/30 02:00:06;;;;;;;;;;;0.60;1.00;;;;;;5021845;28;19924;-83
2023/01/30 02:02:40;;;;;;;;;;;0.60;1.00;;;;;;5031332;28;19909;-83
2023/01/30 02:05:09;;;;;;;;;;;0.70;1.00;;;;;;5014419;28;19920;-83
2023/01/30 02:07:38;;;;;;;;;;;0.60;1.00;;;;;;5005652;28;19909;-83
2023/01/30 02:10:05;;;;;;;;;;;0.70;1.00;;;;;;4989634;28;20678;-84
2023/01/30 02:12:31;;;;;;;;;;;0.60;1.00;;;;;;5026499;28;19909;-86
2023/01/30 02:14:57;;;;;;;;;;;0.60;1.00;;;;;;4997397;28;19917;-81
2023/01/30 02:17:23;;;;;;;;;;;0.60;1.00;;;;;;5014792;28;20358;-84
2023/01/30 02:19:53;;;;;;;;;;;0.60;1.00;;;;;;5013901;28;19909;-86
2023/01/30 02:22:30;;;;;;;;;;;0.50;1.00;;;;;;5014843;28;20259;-87
2023/01/30 02:25:15;;;;;;;;;;;0.50;1.00;;;;;;5013864;28;19917;-84
2023/01/30 02:27:56;;;;;;;;;;;0.50;1.00;;;;;;4990598;28;19913;-82
2023/01/30 02:30:40;;;;;;;;;;;0.50;1.00;;;;;;4985753;28;19982;-85
2023/01/30 02:33:15;;;;;;;;;;;0.50;1.00;;;;;;4994612;28;19909;-83
2023/01/30 02:35:41;;;;;;;;;;;0.50;1.00;;;;;;5012190;28;19909;-83
2023/01/30 02:38:21;;;;;;;;;;;0.50;1.00;;;;;;4995657;28;19909;-85
2023/01/30 02:40:47;;;;;;;;;;;0.50;1.00;;;;;;4993011;28;19909;-85
2023/01/30 02:43:24;;;;;;;;;;;0.50;1.00;;;;;;5011710;28;19916;-84
2023/01/30 02:45:52;;;;;;;;;;;0.60;1.00;;;;;;4995842;28;19913;-84
2023/01/30 02:48:31;;;;;;;;;;;0.50;1.00;;;;;;5014170;28;19921;-85
2023/01/30 02:50:57;;;;;;;;;;;0.50;1.00;;;;;;5007851;28;19914;-83
2023/01/30 02:53:24;;;;;;;;;;;0.50;1.00;;;;;;5014351;28;19909;-84
2023/01/30 02:55:50;;;;;;;;;;;0.60;1.00;;;;;;5008973;28;20344;-84
2023/01/30 02:58:18;;;;;;;;;;;0.60;1.00;;;;;;5013695;28;19933;-85
2023/01/30 03:01:08;;;;;;;;;;;0.60;1.00;;;;;;4988508;28;19917;-84
2023/01/30 03:03:37;;;;;;;;;;;0.60;1.00;;;;;;5011239;28;19921;-83
2023/01/30 03:06:23;;;;;;;;;;;0.60;1.00;;;;;;4990395;28;20347;-82
2023/01/30 03:09:05;;;;;;;;;;;0.60;1.00;;;;;;5011022;28;19920;-82
2023/01/30 03:11:43;;;;;;;;;;;0.60;1.00;;;;;;5010521;28;19917;-83
2023/01/30 03:14:25;;;;;;;;;;;0.60;1.00;;;;;;4994336;28;19910;-86
2023/01/30 03:16:53;;;;;;;;;;;0.60;1.00;;;;;;5011600;28;19917;-83
2023/01/30 03:19:21;;;;;;;;;;;0.50;1.00;;;;;;5014607;28;19913;-84
2023/01/30 03:21:47;;;;;;;;;;;0.50;1.00;;;;;;5003071;28;19913;-82
2023/01/30 03:24:13;;;;;;;;;;;0.60;1.00;;;;;;5011166;28;20339;-84
2023/01/30 03:26:43;;;;;;;;;;;0.50;1.00;;;;;;5012999;28;19920;-83
2023/01/30 03:29:09;;;;;;;;;;;0.50;1.00;;;;;;5010975;28;19910;-83
2023/01/30 03:31:35;;;;;;;;;;;0.50;1.00;;;;;;5004757;28;20360;-85
2023/01/30 03:34:02;;;;;;;;;;;0.50;1.00;;;;;;5007274;28;20286;-82
2023/01/30 03:36:29;;;;;;;;;;;0.40;1.00;;;;;;4994039;28;19917;-83
2023/01/30 03:38:55;;;;;;;;;;;0.40;1.00;;;;;;5007098;28;19910;-82
2023/01/30 03:41:22;;;;;;;;;;;0.40;1.00;;;;;;5002178;28;19909;-83
2023/01/30 03:43:48;;;;;;;;;;;0.40;1.00;;;;;;4994828;28;19921;-82
2023/01/30 03:46:15;;;;;;;;;;;0.40;1.00;;;;;;4987586;28;19916;-85
2023/01/30 03:48:41;;;;;;;;;;;0.40;1.00;;;;;;5009124;28;19910;-84
2023/01/30 03:51:10;;;;;;;;;;;0.40;1.00;;;;;;4985175;28;19909;-84
2023/01/30 03:53:36;;;;;;;;;;;0.40;1.00;;;;;;5012203;28;20355;-83
2023/01/30 03:56:02;;;;;;;;;;;0.30;1.00;;;;;;5005028;28;19921;-83
2023/01/30 03:58:31;;;;;;;;;;;0.40;1.00;;;;;;5011385;28;20262;-86
2023/01/30 04:01:00;;;;;;;;;;;0.40;1.00;;;;;;5011439;28;19944;-82
2023/01/30 04:03:26;;;;;;;;;;;0.40;1.00;;;;;;5010972;28;20358;-82
2023/01/30 04:05:56;;;;;;;;;;;0.40;1.00;;;;;;4996379;28;20370;-83
2023/01/30 04:08:22;;;;;;;;;;;0.50;1.00;;;;;;5014810;28;19909;-83
2023/01/30 04:10:48;;;;;;;;;;;0.50;1.00;;;;;;5013536;28;19910;-83
2023/01/30 04:13:15;;;;;;;;;;;0.50;1.00;;;;;;5012708;28;19973;-85
2023/01/30 04:15:41;;;;;;;;;;;0.50;1.00;;;;;;5010627;28;19921;-82
2023/01/30 04:18:24;;;;;;;;;;;0.50;1.00;;;;;;5012218;28;19912;-85
2023/01/30 04:20:58;;;;;;;;;;;0.60;1.00;;;;;;5011580;28;19917;-83
2023/01/30 04:23:33;;;;;;;;;;;0.50;1.00;;;;;;5010898;28;19913;-84
2023/01/30 04:25:59;;;;;;;;;;;0.50;1.00;;;;;;4988637;28;19914;-84
2023/01/30 04:28:26;;;;;;;;;;;0.50;1.00;;;;;;4991232;28;19925;-83
2023/01/30 04:30:53;;;;;;;;;;;0.50;1.00;;;;;;5008037;28;20396;-82
2023/01/30 04:33:38;;;;;;;;;;;0.50;1.00;;;;;;4989514;28;19916;-83
2023/01/30 04:36:06;;;;;;;;;;;0.50;1.00;;;;;;5007311;28;19913;-84
2023/01/30 04:38:32;;;;;;;;;;;0.40;1.00;;;;;;4992028;28;19912;-83
2023/01/30 04:40:59;;;;;;;;;;;0.50;1.00;;;;;;4990791;28;19909;-82
2023/01/30 04:43:27;;;;;;;;;;;0.40;1.00;;;;;;5008687;28;20355;-85
2023/01/30 04:46:12;;;;;;;;;;;0.40;1.00;;;;;;5013266;28;19920;-85
2023/01/30 04:48:39;;;;;;;;;;;0.40;1.00;;;;;;5009132;28;19910;-87
2023/01/30 04:51:05;;;;;;;;;;;0.40;1.00;;;;;;5011204;28;19914;-84
2023/01/30 04:53:32;;;;;;;;;;;0.40;1.00;;;;;;5008034;28;19910;-85
2023/01/30 04:55:58;;;;;;;;;;;0.40;1.00;;;;;;5005693;28;19910;-85
2023/01/30 04:58:25;;;;;;;;;;;0.40;1.00;;;;;;5007382;28;19914;-83
2023/01/30 05:00:52;;;;;;;;;;;0.40;1.00;;;;;;5007128;28;20271;-84
2023/01/30 05:03:18;;;;;;;;;;;0.50;1.00;;;;;;5007413;28;19916;-83
2023/01/30 05:05:47;;;;;;;;;;;0.40;1.00;;;;;;5000187;28;19917;-84
2023/01/30 05:08:14;;;;;;;;;;;0.50;1.00;;;;;;5007502;28;20370;-84
2023/01/30 05:10:40;;;;;;;;;;;0.50;1.00;;;;;;5020667;28;19924;-83
2023/01/30 05:13:06;;;;;;;;;;;0.40;1.00;;;;;;5029461;28;19898;-82
2023/01/30 05:15:32;;;;;;;;;;;0.50;1.00;;;;;;5032320;28;19978;-81
2023/01/30 05:17:59;;;;;;;;;;;0.50;1.00;;;;;;5023236;28;19921;-83
2023/01/30 05:20:25;;;;;;;;;;;0.50;1.00;;;;;;5013055;28;19916;-82
2023/01/30 05:22:51;;;;;;;;;;;0.50;1.00;;;;;;5005274;28;19917;-84
2023/01/30 05:25:16;;;;;;;;;;;0.50;1.00;;;;;;5007998;28;19960;-83
2023/01/30 05:27:42;;;;;;;;;;;0.50;1.00;;;;;;5009696;28;20016;-82
2023/01/30 05:30:09;;;;;;;;;;;0.50;1.00;;;;;;5010940;28;20012;-83
2023/01/30 05:32:35;;;;;;;;;;;0.50;1.00;;;;;;5007340;28;19913;-83
2023/01/30 05:35:01;;;;;;;;;;;0.60;1.00;;;;;;5010889;28;20370;-82
2023/01/30 05:37:27;;;;;;;;;;;0.50;1.00;;;;;;5009442;28;19906;-82
2023/01/30 05:39:53;;;;;;;;;;;0.60;1.00;;;;;;5008896;28;19917;-82
2023/01/30 05:42:19;;;;;;;;;;;0.60;1.00;;;;;;5011936;28;19909;-83
2023/01/30 05:44:45;;;;;;;;;;;0.60;1.00;;;;;;4992509;28;19944;-85
2023/01/30 05:47:10;;;;;;;;;;;0.60;1.00;;;;;;5005712;28;19925;-85
2023/01/30 05:49:37;;;;;;;;;;;0.60;1.00;;;;;;5010886;28;19940;-83
2023/01/30 05:52:03;;;;;;;;;;;0.60;1.00;;;;;;4997349;28;19914;-85
2023/01/30 05:54:29;;;;;;;;;;;0.60;1.00;;;;;;5013517;28;19910;-87
2023/01/30 05:56:54;;;;;;;;;;;0.60;1.00;;;;;;5008384;28;19905;-87
2023/01/30 05:59:20;;;;;;;;;;;0.70;1.00;;;;;;5010197;28;19994;-88
2023/01/30 06:01:46;;;;;;;;;;;0.70;1.00;;;;;;5009424;28;19918;-85
2023/01/30 06:04:12;;;;;;;;;;;0.70;1.00;;;;;;5020408;28;19913;-87
2023/01/30 06:06:38;;;;;;;;;;;0.70;1.00;;;;;;5011581;28;19913;-89
2023/01/30 06:09:04;;;;;;;;;;;0.70;1.00;;;;;;5005701;28;20366;-87
2023/01/30 06:11:30;;;;;;;;;;;0.70;1.00;;;;;;4997164;28;19983;-87
2023/01/30 06:13:56;;;;;;;;;;;0.70;1.00;;;;;;5006628;28;19913;-81
2023/01/30 06:16:22;;;;;;;;;;;0.70;1.00;;;;;;5008007;28;20012;-80
2023/01/30 06:18:48;;;;;;;;;;;0.70;1.00;;;;;;5006829;28;19953;-80
2023/01/30 06:21:15;;;;;;;;;;;0.70;1.00;;;;;;5010052;28;19921;-81
2023/01/30 06:23:41;;;;;;;;;;;0.70;1.00;;;;;;5007605;28;19913;-80
2023/01/30 06:26:07;;;;;;;;;;;0.80;1.00;;;;;;5007068;28;19914;-80
2023/01/30 06:28:33;;;;;;;;;;;0.80;1.00;;;;;;5007623;28;19910;-81
2023/01/30 06:31:00;;;;;;;;;;;0.80;1.00;;;;;;5012377;28;20397;-79
2023/01/30 06:33:26;;;;;;;;;;;0.80;1.00;;;;;;5013851;28;19910;-79
2023/01/30 06:35:53;;;;;;;;;;;0.80;1.00;;;;;;5013373;28;19963;-80
2023/01/30 06:38:19;;;;;;;;;;;0.80;1.00;;;;;;5011882;28;19910;-79
2023/01/30 06:40:46;;;;;;;;;;;0.80;1.00;;;;;;5011343;28;19909;-78
2023/01/30 06:43:13;;;;;;;;;;;0.80;1.00;;;;;;5009338;28;19997;-78
2023/01/30 06:45:39;;;;;;;;;;;0.90;1.00;;;;;;5013485;28;19924;-78
2023/01/30 06:48:05;;;;;;;;;;;0.90;1.00;;;;;;5007044;28;20378;-77
2023/01/30 06:50:31;;;;;;;;;;;0.90;1.00;;;;;;5007443;28;20409;-77
2023/01/30 06:52:57;;;;;;;;;;;1.00;1.00;;;;;;5006806;28;19958;-77
2023/01/30 06:55:24;;;;;;;;;;;1.10;1.00;;;;;;5009594;28;19916;-78
2023/01/30 06:58:07;;;;;;;;;;;1.20;1.00;;;;;;5005241;28;19936;-77
2023/01/30 07:00:33;;;;;;;;;;;1.30;1.00;;;;;;5003411;28;19928;-77
2023/01/30 07:03:01;;;;;;;;;;;1.30;1.00;;;;;;5007045;28;20016;-75
2023/01/30 07:05:30;;;;;;;;;;;1.30;1.00;;;;;;5017308;28;19918;-82
2023/01/30 07:07:56;;;;;;;;;;;1.30;1.00;;;;;;5011284;28;19913;-77
2023/01/30 07:10:22;;;;;;;;;;;1.40;1.00;;;;;;5011720;28;20274;-77
2023/01/30 07:12:48;;;;;;;;;;;1.40;1.00;;;;;;5011923;28;19909;-77
2023/01/30 07:15:14;;;;;;;;;;;1.40;1.00;;;;;;5011059;28;19936;-77
2023/01/30 07:17:40;;;;;;;;;;;1.40;1.00;;;;;;5007445;28;20286;-77
2023/01/30 07:20:08;;;;;;;;;;;1.40;1.00;;;;;;5000393;28;19909;-76
2023/01/30 07:22:34;;;;;;;;;;;1.40;1.00;;;;;;5007879;28;19950;-77
2023/01/30 07:25:00;;;;;;;;;;;1.40;1.00;;;;;;5009307;28;20085;-77
2023/01/30 07:27:26;;;;;;;;;;;1.40;1.00;;;;;;5012107;28;19905;-76
2023/01/30 07:29:51;;;;;;;;;;;1.40;1.00;;;;;;5012296;28;19917;-77
2023/01/30 07:32:18;;;;;;;;;;;1.40;1.00;;;;;;5008600;28;19996;-77
2023/01/30 07:34:45;;;;;;;;;;;1.40;1.00;;;;;;5012682;28;19916;-76
2023/01/30 07:37:11;;;;;;;;;;;1.40;1.00;;;;;;5008154;28;19909;-76
2023/01/30 07:39:37;;;;;;;;;;;1.40;1.00;;;;;;5009806;28;20320;-76
2023/01/30 07:42:03;;;;;;;;;;;1.40;1.00;;;;;;5006740;28;20366;-75
2023/01/30 07:44:29;;;;;;;;;;;1.40;1.00;;;;;;4999668;28;20348;-76
2023/01/30 07:46:55;;;;;;;;;;;1.40;1.00;;;;;;5012996;28;19921;-75
2023/01/30 07:49:22;;;;;;;;;;;1.40;1.00;;;;;;5018808;28;19909;-76
2023/01/30 07:51:48;;;;;;;;;;;1.50;1.00;;;;;;5008996;28;19916;-75
2023/01/30 07:54:14;;;;;;;;;;;1.50;1.00;;;;;;5009886;28;20351;-76
2023/01/30 07:56:40;;;;;;;;;;;1.50;1.00;;;;;;5004336;28;19906;-75
2023/01/30 07:59:06;;;;;;;;;;;1.50;1.00;;;;;;5008299;28;19916;-76
2023/01/30 08:01:32;;;;;;;;;;;1.50;1.00;;;;;;5005915;28;19917;-75
2023/01/30 08:03:58;;;;;;;;;;;1.50;1.00;;;;;;5015549;28;20384;-76
2023/01/30 08:06:24;;;;;;;;;;;1.50;1.00;;;;;;5010229;28;19909;-76
2023/01/30 08:08:50;;;;;;;;;;;1.50;1.00;;;;;;5010245;28;19916;-77
2023/01/30 08:11:17;;;;;;;;;;;1.50;1.00;;;;;;5012462;28;20016;-77
2023/01/30 08:13:43;;;;;;;;;;;1.40;1.00;;;;;;5011159;28;19913;-77
2023/01/30 08:16:09;;;;;;;;;;;1.40;1.00;;;;;;5009641;28;19909;-75
2023/01/30 08:18:35;;;;;;;;;;;1.40;1.00;;;;;;5010539;28;20347;-76
2023/01/30 08:21:02;;;;;;;;;;;1.40;1.00;;;;;;5011115;28;19929;-74
2023/01/30 08:23:29;;;;;;;;;;;1.40;1.00;;;;;;5014821;28;19913;-77
2023/01/30 08:25:56;;;;;;;;;;;1.40;1.00;;;;;;5009149;28;19913;-77
2023/01/30 08:28:22;;;;;;;;;;;1.30;1.00;;;;;;5006721;28;19909;-75
2023/01/30 08:30:48;;;;;;;;;;;1.40;1.00;;;;;;5011295;28;19906;-75
2023/01/30 08:33:14;;;;;;;;;;;1.40;1.00;;;;;;5006192;28;19909;-77
2023/01/30 08:35:40;;;;;;;;;;;1.40;1.00;;;;;;5009423;28;19916;-78
2023/01/30 08:38:07;;;;;;;;;;;1.40;1.00;;;;;;5008237;28;19910;-78
2023/01/30 08:40:34;;;;;;;;;;;1.40;1.00;;;;;;4996876;28;19913;-78
2023/01/30 08:43:00;;;;;;;;;;;1.40;1.00;;;;;;5012092;28;19936;-78
2023/01/30 08:45:28;;;;;;;;;;;1.40;1.00;;;;;;5011955;28;19920;-78
2023/01/30 08:47:58;;;;;;;;;;;1.40;1.00;;;;;;4990947;28;19910;-77
2023/01/30 08:50:25;;;;;;;;;;;1.50;1.00;;;;;;4999758;28;19917;-77
2023/01/30 08:52:51;;;;;;;;;;;1.50;1.00;;;;;;5012941;28;20274;-78
2023/01/30 08:55:18;;;;;;;;;;;1.50;1.00;;;;;;5009303;28;20208;-79
2023/01/30 08:57:44;;;;;;;;;;;1.50;1.00;;;;;;5009997;28;19909;-78
2023/01/30 09:00:10;;;;;;;;;;;1.60;1.00;;;;;;5009882;28;19917;-78
2023/01/30 09:02:36;;;;;;;;;;;1.60;1.00;;;;;;5006056;28;20286;-78
2023/01/30 09:05:02;;;;;;;;;;;1.60;1.00;;;;;;5011415;28;19964;-78
2023/01/30 09:07:28;;;;;;;;;;;1.70;1.00;;;;;;5008073;28;19917;-78
2023/01/30 09:09:54;;;;;;;;;;;1.70;1.00;;;;;;5009792;28;19916;-81
2023/01/30 09:12:20;;;;;;;;;;;1.70;1.00;;;;;;4999244;28;19918;-78
2023/01/30 09:14:46;;;;;;;;;;;1.70;1.00;;;;;;4988222;28;19910;-78
2023/01/30 09:17:12;;;;;;;;;;;1.70;1.00;;;;;;4997257;28;20009;-79
2023/01/30 09:19:38;;;;;;;;;;;1.80;1.00;;;;;;5007787;28;19910;-78
2023/01/30 09:22:06;;;;;;;;;;;1.70;1.00;;;;;;5011306;28;19905;-78
2023/01/30 09:24:32;;;;;;;;;;;1.80;1.00;;;;;;5008600;28;19929;-78
2023/01/30 09:26:58;;;;;;;;;;;1.80;1.00;;;;;;5010154;28;19906;-80
2023/01/30 09:29:25;;;;;;;;;;;1.90;1.00;;;;;;5010818;28;20251;-78
2023/01/30 09:31:51;;;;;;;;;;;2.00;1.00;;;;;;5007049;28;19910;-79
2023/01/30 09:34:17;;;;;;;;;;;2.00;1.00;;;;;;5011366;28;19963;-78
2023/01/30 09:36:43;;;;;;;;;;;2.00;1.00;;;;;;5009399;28;19917;-79
2023/01/30 09:39:09;;;;;;;;;;;2.10;1.00;;;;;;5009961;28;19913;-78
2023/01/30 09:41:47;;;;;;;;;;;2.10;1.00;;;;;;5012112;28;19917;-78
2023/01/30 09:44:29;;;;;;;;;;;2.10;1.00;;;;;;5014302;28;19910;-78
2023/01/30 09:46:55;;;;;;;;;;;2.20;1.00;;;;;;5000675;28;19914;-78
2023/01/30 09:49:24;;;;;;;;;;;2.30;1.00;;;;;;4981875;28;19910;-79
2023/01/30 09:52:05;;;;;;;;;;;2.40;1.00;;;;;;5003144;28;20255;-78
2023/01/30 09:54:33;;;;;;;;;;;2.40;1.00;;;;;;5006080;28;19917;-76
2023/01/30 09:57:16;;;;;;;;;;;2.60;1.00;;;;;;5008274;28;19910;-77
2023/01/30 09:59:54;;;;;;;;;;;2.70;1.00;;;;;;5008929;28;19932;-76
2023/01/30 10:02:29;;;;;;;;;;;2.80;1.00;;;;;;5011513;28;19940;-75
2023/01/30 10:04:57;;;;;;;;;;;2.90;1.00;;;;;;5014369;28;19932;-75
2023/01/30 10:07:35;;;;;;;;;;;2.90;1.00;;;;;;5013891;28;20001;-75
2023/01/30 10:10:10;;;;;;;;;;;2.90;1.00;;;;;;5012535;28;19921;-77
2023/01/30 10:12:39;;;;;;;;;;;3.00;1.00;;;;;;5010233;28;20383;-76
2023/01/30 10:15:24;;;;;;;;;;;3.00;1.00;;;;;;5008390;28;19910;-78
2023/01/30 10:17:53;;;;;;;;;;;3.00;1.00;;;;;;5012383;28;19909;-75
2023/01/30 10:20:30;;;;;;;;;;;3.10;1.00;;;;;;5012834;28;19916;-78
2023/01/30 10:23:03;;;;;;;;;;;3.20;1.00;;;;;;5011536;28;20258;-75
2023/01/30 10:25:50;;;;;;;;;;;3.30;1.00;;;;;;5014166;28;19941;-76
2023/01/30 10:28:27;;;;;;;;;;;3.30;1.00;;;;;;5008537;28;19932;-75
2023/01/30 10:30:58;;;;;;;;;;;3.40;1.00;;;;;;5010855;28;19909;-76
2023/01/30 10:33:32;;;;;;;;;;;3.40;1.00;;;;;;5011757;28;19910;-75
2023/01/30 10:36:01;;;;;;;;;;;3.50;1.00;;;;;;5012294;28;20382;-76
2023/01/30 10:38:39;;;;;;;;;;;3.50;1.00;;;;;;5013921;28;20377;-76
2023/01/30 10:41:14;;;;;;;;;;;3.70;1.00;;;;;;4999277;28;20281;-76
2023/01/30 10:43:42;;;;;;;;;;;3.80;1.00;;;;;;5013133;28;19914;-76
2023/01/30 10:46:08;;;;;;;;;;;4.00;1.00;;;;;;5010535;28;19925;-76
2023/01/30 10:48:46;;;;;;;;;;;4.20;1.00;;;;;;4998832;28;20276;-76
2023/01/30 10:51:33;;;;;;;;;;;4.10;1.00;;;;;;5011340;28;19909;-76
2023/01/30 10:54:04;;;;;;;;;;;4.10;1.00;;;;;;5001304;28;19913;-76
2023/01/30 10:56:39;;;;;;;;;;;4.10;1.00;;;;;;5014652;28;19917;-76
2023/01/30 10:59:21;;;;;;;;;;;4.10;1.00;;;;;;5003216;28;19910;-78
2023/01/30 11:01:50;;;;;;;;;;;4.20;1.00;;;;;;5007389;28;19918;-76
2023/01/30 11:04:42;;;;;;;;;;;4.40;1.00;;;;;;5015353;28;19909;-76
2023/01/30 11:07:08;;;;;;;;;;;4.30;1.00;;;;;;4995315;28;19917;-76
2023/01/30 11:09:45;;;;;;;;;;;4.40;1.00;;;;;;5010161;28;19905;-77
2023/01/30 11:12:11;;;;;;;;;;;4.50;1.00;;;;;;5010220;28;19913;-74
2023/01/30 11:14:55;;;;;;;;;;;4.60;1.00;;;;;;5010865;28;19913;-73
2023/01/30 11:17:28;;;;;;;;;;;4.60;1.00;;;;;;5008197;28;19924;-74
2023/01/30 11:19:55;;;;;;;;;;;4.70;1.00;;;;;;5011831;28;19932;-76
2023/01/30 11:22:24;;;;;;;;;;;4.70;1.00;;;;;;5006104;28;19913;-73
2023/01/30 11:24:58;;;;;;;;;;;4.80;1.00;;;;;;5012823;28;19948;-74
2023/01/30 11:27:27;;;;;;;;;;;4.80;1.00;;;;;;5008416;28;19917;-75
2023/01/30 11:30:26;;;;;;;;;;;4.90;1.00;;;;;;5013123;28;19909;-75
2023/01/30 11:33:03;;;;;;;;;;;4.90;1.00;;;;;;4992794;28;20366;-75
2023/01/30 11:35:29;;;;;;;;;;;4.80;1.00;;;;;;5012789;28;19909;-75
2023/01/30 11:38:10;;;;;;;;;;;4.70;1.00;;;;;;5009681;28;19928;-76
2023/01/30 11:40:37;;;;;;;;;;;4.50;1.00;;;;;;5010671;28;19916;-76
2023/01/30 11:43:10;;;;;;;;;;;4.40;1.00;;;;;;5011693;28;20400;-75
2023/01/30 11:45:38;;;;;;;;;;;4.50;1.00;;;;;;5012704;28;19924;-75
2023/01/30 11:48:05;;;;;;;;;;;4.50;1.00;;;;;;5008954;28;19905;-78
2023/01/30 11:50:37;;;;;;;;;;;4.50;1.00;;;;;;5008788;28;19914;-75
2023/01/30 11:53:06;;;;;;;;;;;4.50;1.00;;;;;;4999105;28;19914;-75
2023/01/30 11:55:34;;;;;;;;;;;4.60;1.00;;;;;;5007474;28;20350;-75
2023/01/30 11:58:01;;;;;;;;;;;4.80;1.00;;;;;;5012246;28;19909;-75
2023/01/30 12:00:36;;;;;;;;;;;4.90;1.00;;;;;;5013021;28;19918;-73
2023/01/30 12:03:04;;;;;;;;;;;5.10;1.00;;;;;;5015591;28;19913;-79
2023/01/30 12:05:35;;;;;;;;;;;5.20;99.90;;;;;;5010975;28;19917;-75
2023/01/30 12:08:19;;;;;;;;;;;5.30;99.90;;;;;;5012646;28;19913;-76
2023/01/30 12:10:50;;;;;;;;;;;5.40;99.90;;;;;;5011173;28;19925;-79
2023/01/30 12:13:31;;;;;;;;;;;5.40;99.90;;;;;;5004743;28;19910;-77
2023/01/30 12:16:05;;;;;;;;;;;5.50;99.90;;;;;;5008320;28;19916;-77
2023/01/30 12:18:37;;;;;;;;;;;5.50;99.90;;;;;;5008069;28;19910;-77
2023/01/30 12:21:20;;;;;;;;;;;5.50;99.90;;;;;;5009852;28;19916;-77
2023/01/30 12:23:59;;;;;;;;;;;5.60;99.90;;;;;;4995165;28;19921;-76
2023/01/30 12:26:25;;;;;;;;;;;5.50;99.90;;;;;;5014871;28;19909;-85
2023/01/30 12:28:53;;;;;;;;;;;5.60;99.90;;;;;;5010394;28;19909;-80
2023/01/30 12:31:19;;;;;;;;;;;5.60;99.90;;;;;;5011568;28;19906;-82
2023/01/30 12:33:46;;;;;;;;;;;5.60;99.90;;;;;;5001335;28;19924;-79
2023/01/30 12:36:33;;;;;;;;;;;5.60;99.90;;;;;;5009495;28;19916;-78
2023/01/30 12:39:18;;;;;;;;;;;5.50;99.90;;;;;;5026753;28;19910;-86
2023/01/30 12:41:44;;;;;;;;;;;5.40;99.90;;;;;;5010561;28;20354;-84
2023/01/30 12:44:19;;;;;;;;;;;5.50;99.90;;;;;;5010414;28;20389;-78
2023/01/30 12:46:57;;;;;;;;;;;5.50;99.90;;;;;;5008509;28;19924;-87
2023/01/30 12:49:27;;;;;;;;;;;5.60;99.90;;;;;;5003001;28;19910;-79
2023/01/30 12:51:56;;;;;;;;;;;5.70;99.90;;;;;;5009439;28;19913;-82
2023/01/30 12:54:40;;;;;;;;;;;5.90;99.90;;;;;;5010442;28;19914;-85
2023/01/30 12:57:25;;;;;;;;;;;5.90;99.90;;;;;;5004873;28;19916;-87
2023/01/30 13:00:00;;;;;;;;;;;5.80;99.90;;;;;;5007097;28;20096;-85
2023/01/30 13:02:32;;;;;;;;;;;5.70;99.90;;;;;;5008100;28;19932;-85
2023/01/30 13:05:20;;;;;;;;;;;5.80;99.90;;;;;;5005036;28;19917;-85
2023/01/30 13:07:55;;;;;;;;;;;5.90;99.90;;;;;;4986191;28;19917;-84
2023/01/30 13:10:33;;;;;;;;;;;6.00;99.90;;;;;;5005092;28;19910;-80
2023/01/30 13:13:03;;;;;;;;;;;5.90;99.90;;;;;;5004308;28;19913;-85
2023/01/30 13:15:41;;;;;;;;;;;5.70;99.90;;;;;;5010081;28;20522;-81
2023/01/30 13:18:14;;;;;;;;;;;5.80;99.90;;;;;;5010244;28;20298;-77
2023/01/30 13:20:40;;;;;;;;;;;5.80;99.90;;;;;;5010378;28;19910;-81
2023/01/30 13:23:12;;;;;;;;;;;5.70;99.90;;;;;;5013470;28;19979;-78
2023/01/30 13:25:57;;;;;;;;;;;5.70;99.90;;;;;;4999536;28;19922;-78
2023/01/30 13:28:26;;;;;;;;;;;5.70;99.90;;;;;;5009281;28;19933;-91
2023/01/30 13:30:54;;;;;;;;;;;5.50;99.90;;;;;;5017603;28;19917;-82
2023/01/30 13:33:34;;;;;;;;;;;5.50;1.00;;;;;;5010924;28;19913;-86
2023/01/30 13:36:17;;;;;;;;;;;5.40;1.00;;;;;;5015065;28;19910;-91
2023/01/30 13:38:55;;;;;;;;;;;5.40;1.00;;;;;;5016060;28;19917;-87
2023/01/30 13:41:23;;;;;;;;;;;5.40;1.00;;;;;;5009566;28;19918;-89
2023/01/30 13:43:51;;;;;;;;;;;5.30;1.00;;;;;;5007384;28;19932;-88
2023/01/30 13:46:22;;;;;;;;;;;5.40;1.00;;;;;;5012839;28;19924;-89
2023/01/30 13:48:54;;;;;;;;;;;5.40;1.00;;;;;;5015782;28;19909;-85
2023/01/30 13:51:35;;;;;;;;;;;5.50;1.00;;;;;;5015705;28;19914;-87
2023/01/30 13:54:11;;;;;;;;;;;5.40;1.00;;;;;;5019408;28;19913;-86
2023/01/30 13:56:43;;;;;;;;;;;5.40;1.00;;;;;;5018705;28;19893;-87
2023/01/30 13:59:12;;;;;;;;;;;5.50;1.00;;;;;;5035692;28;19912;-84
2023/01/30 14:01:57;;;;;;;;;;;5.70;1.00;;;;;;5036595;28;19905;-82
2023/01/30 14:04:42;;;;;;;;;;;5.60;1.00;;;;;;5016912;28;19917;-78
2023/01/30 14:07:08;;;;;;;;;;;5.50;1.00;;;;;;5013407;28;19918;-80
2023/01/30 14:09:36;;;;;;;;;;;5.40;1.00;;;;;;5012229;28;19914;-80
2023/01/30 14:12:02;;;;;;;;;;;5.40;1.00;;;;;;5014014;28;19913;-80
2023/01/30 14:14:32;;;;;;;;;;;5.40;1.00;;;;;;5011514;28;20378;-79
2023/01/30 14:17:07;;;;;;;;;;;5.40;1.00;;;;;;5018804;28;19916;-78
2023/01/30 14:19:42;;;;;;;;;;;5.40;1.00;;;;;;5001310;28;19906;-79
2023/01/30 14:22:26;;;;;;;;;;;5.40;1.00;;;;;;5010461;28;20301;-80
2023/01/30 14:25:11;;;;;;;;;;;5.50;1.00;;;;;;4990172;28;19916;-76
2023/01/30 14:27:37;;;;;;;;;;;5.40;1.00;;;;;;4991033;28;20355;-79
2023/01/30 14:30:33;;;;;;;;;;;5.40;1.00;;;;;;5010965;28;19905;-77
2023/01/30 14:33:00;;;;;;;;;;;5.40;1.00;;;;;;5005666;28;19909;-77
2023/01/30 14:35:29;;;;;;;;;;;5.40;1.00;;;;;;5008611;28;19909;-76
2023/01/30 14:38:15;;;;;;;;;;;5.40;1.00;;;;;;5009932;28;19921;-79
2023/01/30 14:40:42;;;;;;;;;;;5.30;1.00;;;;;;5010987;28;19913;-79
2023/01/30 14:43:12;;;;;;;;;;;5.40;1.00;;;;;;5013519;28;19914;-78
2023/01/30 14:45:44;;;;;;;;;;;5.40;1.00;;;;;;5004103;28;19918;-80
2023/01/30 14:48:28;;;;;;;;;;;5.40;1.00;;;;;;5007454;28;19933;-78
2023/01/30 14:51:20;;;;;;;;;;;5.40;1.00;;;;;;5015061;28;19929;-78
2023/01/30 14:53:48;;;;;;;;;;;5.40;1.00;;;;;;4993629;28;19916;-78
2023/01/30 14:56:15;;;;;;;;;;;5.40;1.00;;;;;;5014299;28;19916;-77
2023/01/30 14:58:53;;;;;;;;;;;5.50;1.00;;;;;;5012417;28;19993;-76
2023/01/30 15:01:19;;;;;;;;;;;5.50;1.00;;;;;;5000682;28;19918;-80
2023/01/30 15:03:47;;;;;;;;;;;5.50;1.00;;;;;;5012365;28;19921;-79
2023/01/30 15:06:13;;;;;;;;;;;5.50;1.00;;;;;;5017868;28;19917;-80